Pine Bluff, Arkansas
Current Conditions -  °F | °C
As of 4:53 PM on Thursday 18 Dec 2014 (Local Time) from KPBF Reporting Station
Overcast Overcast  
Wind Chill: 40°   Ceiling: 900
Heat Index: 44°   Visibility: 9mi
Dew Point: 40°   Wind: 7mph
Humidity: 85%   Direction: 10°N
Pressure: 30.18"   Gusts: NA
Location:  34.22°N, 92°W
Report Text: KPBF 182253Z AUTO 01006KT 9SM OVC009 07/04 A3018 RMK AO2 SLP220 T00670044
Loading
Personal Weather Stations






























Interactive Weather Map New forecast layout! Learn more

10-Day Weather Forecast

Advertisements
Track Severe Weather on mobile